Time;durP1;ratioP1;P1;durP2;ratioP2;P2;SDS_P1;SDS_P2;PMS_P1;PMS_P2;Temp;Humidity;BMP_temperature;BMP_pressure;BME280_temperature;BME280_humidity;BME280_pressure;Samples;Min_cycle;Max_cycle;Signal;HPM_P1;HPM_P2
2023/06/24 00:01:38;;;;;;;0.10;0.10;;;;;;;15.99;100.00;97441.03;5034794;28;20048;-79
2023/06/24 00:04:24;;;;;;;0.00;0.00;;;;;;;15.98;100.00;97427.81;5030402;28;20032;-79
2023/06/24 00:07:10;;;;;;;0.10;0.10;;;;;;;15.91;100.00;97429.91;5019102;28;20040;-77
2023/06/24 00:09:56;;;;;;;0.10;0.10;;;;;;;15.80;100.00;97424.44;5032984;28;20397;-78
2023/06/24 00:12:42;;;;;;;0.10;0.10;;;;;;;15.57;100.00;97430.16;5017731;28;20724;-78
2023/06/24 00:15:28;;;;;;;0.00;0.00;;;;;;;15.56;100.00;97433.91;5034466;28;20048;-78
2023/06/24 00:18:13;;;;;;;0.10;0.10;;;;;;;15.66;100.00;97430.53;5035167;28;20044;-78
2023/06/24 00:21:01;;;;;;;0.10;0.10;;;;;;;15.74;100.00;97441.66;5030454;28;20045;-78
2023/06/24 00:23:49;;;;;;;0.10;0.10;;;;;;;15.74;100.00;97430.88;5027662;28;21047;-79
2023/06/24 00:26:35;;;;;;;0.10;0.10;;;;;;;15.73;100.00;97433.81;5033726;28;20041;-78
2023/06/24 00:29:21;;;;;;;0.10;0.10;;;;;;;15.59;100.00;97428.00;5032329;28;20040;-78
2023/06/24 00:32:07;;;;;;;0.10;0.10;;;;;;;15.64;100.00;97425.41;5017982;28;20057;-77
2023/06/24 00:34:57;;;;;;;0.10;0.10;;;;;;;15.70;100.00;97431.63;5030459;28;20218;-77
2023/06/24 00:37:46;;;;;;;0.10;0.10;;;;;;;15.63;100.00;97429.13;5030194;28;20052;-80
2023/06/24 00:40:33;;;;;;;0.00;0.00;;;;;;;15.61;100.00;97417.81;5018213;28;20150;-79
2023/06/24 00:43:19;;;;;;;0.10;0.10;;;;;;;15.62;100.00;97424.81;5018643;28;20123;-77
2023/06/24 00:46:06;;;;;;;0.00;0.00;;;;;;;15.59;100.00;97422.63;5019964;28;20049;-78
2023/06/24 00:48:53;;;;;;;0.00;0.00;;;;;;;15.32;100.00;97434.22;5016088;28;20136;-78
2023/06/24 00:51:40;;;;;;;0.10;0.10;;;;;;;15.36;100.00;97431.03;5016398;28;20908;-78
2023/06/24 00:54:30;;;;;;;0.10;0.10;;;;;;;15.28;100.00;97416.94;5013430;28;20110;-79
2023/06/24 00:57:23;;;;;;;0.10;0.10;;;;;;;15.30;100.00;97433.66;5017926;28;20049;-78
2023/06/24 01:00:16;;;;;;;0.00;0.00;;;;;;;15.32;100.00;97423.44;5034794;28;21434;-78
2023/06/24 01:03:03;;;;;;;0.00;0.00;;;;;;;15.37;100.00;97430.78;5001978;28;20052;-79
2023/06/24 01:05:49;;;;;;;0.10;0.10;;;;;;;15.37;100.00;97433.47;5033921;28;20053;-79
2023/06/24 01:08:36;;;;;;;0.10;0.10;;;;;;;15.35;100.00;97429.41;5028144;28;20454;-79
2023/06/24 01:11:23;;;;;;;0.00;0.00;;;;;;;15.37;100.00;97429.97;5004136;28;20103;-79
2023/06/24 01:14:09;;;;;;;0.00;0.00;;;;;;;15.32;100.00;97434.22;5033485;28;20079;-79
2023/06/24 01:16:58;;;;;;;0.00;0.00;;;;;;;15.30;100.00;97422.88;5015265;28;20952;-76
2023/06/24 01:20:12;;;;;;;0.10;0.10;;;;;;;15.37;100.00;97427.25;5033360;28;20818;-78
2023/06/24 01:23:04;;;;;;;0.10;0.10;;;;;;;15.31;100.00;97427.22;5034356;28;20094;-78
2023/06/24 01:26:29;;;;;;;0.10;0.10;;;;;;;15.32;100.00;97431.53;5038182;28;20124;-78
2023/06/24 01:29:45;;;;;;;0.10;0.10;;;;;;;15.11;100.00;97416.25;5021250;28;20123;-78
2023/06/24 01:32:40;;;;;;;0.10;0.10;;;;;;;15.12;100.00;97438.63;5019236;28;20067;-77
2023/06/24 01:35:31;;;;;;;0.10;0.10;;;;;;;14.94;100.00;97434.34;5039448;28;20048;-79
2023/06/24 01:38:48;;;;;;;0.10;0.10;;;;;;;14.76;100.00;97428.25;5021603;28;20056;-78
2023/06/24 01:41:43;;;;;;;0.00;0.00;;;;;;;14.79;100.00;97431.50;5023890;28;20613;-78
2023/06/24 01:44:30;;;;;;;0.10;0.10;;;;;;;14.86;100.00;97427.53;5016398;28;20037;-78
2023/06/24 01:47:27;;;;;;;0.10;0.10;;;;;;;14.93;100.00;97424.66;5035609;28;20102;-78
2023/06/24 01:50:16;;;;;;;0.10;0.10;;;;;;;14.90;100.00;97435.94;5037711;28;20117;-79
2023/06/24 01:53:07;;;;;;;0.10;0.10;;;;;;;14.82;100.00;97418.34;5017104;28;20037;-78
2023/06/24 01:55:55;;;;;;;0.10;0.10;;;;;;;14.93;100.00;97432.72;5035462;28;20055;-78
2023/06/24 01:58:43;;;;;;;0.10;0.10;;;;;;;14.92;100.00;97433.81;5021455;28;20502;-79
2023/06/24 02:01:35;;;;;;;0.10;0.10;;;;;;;14.89;100.00;97432.44;5034853;28;20381;-78
2023/06/24 02:04:23;;;;;;;0.00;0.00;;;;;;;14.91;100.00;97434.88;5019850;28;20146;-78
2023/06/24 02:07:10;;;;;;;0.10;0.10;;;;;;;14.88;100.00;97427.31;5036546;28;20590;-78
2023/06/24 02:09:59;;;;;;;0.10;0.10;;;;;;;14.85;100.00;97428.59;5016992;28;20032;-79
2023/06/24 02:12:49;;;;;;;0.10;0.10;;;;;;;14.84;100.00;97426.97;5018918;28;20041;-78
2023/06/24 02:15:37;;;;;;;0.10;0.10;;;;;;;14.83;100.00;97421.84;5024801;28;20040;-78
2023/06/24 02:18:27;;;;;;;0.15;0.15;;;;;;;14.68;100.00;97428.69;5016641;28;20040;-78
2023/06/24 02:21:15;;;;;;;0.10;0.10;;;;;;;14.61;100.00;97422.66;5018709;28;20044;-79
2023/06/24 02:24:02;;;;;;;0.10;0.10;;;;;;;14.65;100.00;97426.50;5022370;28;20068;-78
2023/06/24 02:26:53;;;;;;;0.10;0.10;;;;;;;14.71;100.00;97432.78;5033540;28;20040;-78
2023/06/24 02:29:39;;;;;;;0.10;0.10;;;;;;;14.70;100.00;97423.84;5038905;28;20511;-79
2023/06/24 02:32:25;;;;;;;0.05;0.05;;;;;;;14.67;100.00;97429.75;5032342;28;20041;-79
2023/06/24 02:35:12;;;;;;;0.00;0.00;;;;;;;14.68;100.00;97428.69;5022241;28;20613;-79
2023/06/24 02:37:58;;;;;;;0.10;0.10;;;;;;;14.66;100.00;97427.31;5019906;28;20616;-79
2023/06/24 02:40:49;;;;;;;0.10;0.10;;;;;;;14.65;100.00;97423.81;5037452;28;20053;-78
2023/06/24 02:43:38;;;;;;;0.10;0.10;;;;;;;14.58;100.00;97428.56;5021489;28;20094;-78
2023/06/24 02:46:29;;;;;;;0.10;0.10;;;;;;;14.48;100.00;97425.75;5018138;28;20801;-78
2023/06/24 02:49:17;;;;;;;0.03;0.03;;;;;;;14.44;100.00;97422.69;5037176;28;20112;-78
2023/06/24 02:52:03;;;;;;;0.00;0.00;;;;;;;14.42;100.00;97421.31;5014679;28;20592;-79
2023/06/24 02:54:50;;;;;;;0.10;0.10;;;;;;;14.48;100.00;97425.75;5017812;28;20045;-78
2023/06/24 02:57:53;;;;;;;0.10;0.10;;;;;;;14.44;100.00;97433.47;5035508;28;20048;-78
2023/06/24 03:00:49;;;;;;;0.10;0.10;;;;;;;14.42;100.00;97430.22;5034540;28;20056;-78
2023/06/24 03:03:56;;;;;;;0.05;0.05;;;;;;;14.44;100.00;97433.47;5019740;28;20053;-79
2023/06/24 03:06:43;;;;;;;0.10;0.10;;;;;;;14.26;100.00;97436.47;5035458;28;20048;-79
2023/06/24 03:09:34;;;;;;;0.10;0.10;;;;;;;14.14;100.00;97427.66;5032834;28;20128;-78
2023/06/24 03:12:21;;;;;;;0.00;0.00;;;;;;;14.08;100.00;97428.63;5019923;28;20086;-77
2023/06/24 03:15:09;;;;;;;0.10;0.10;;;;;;;14.15;100.00;97438.16;5035375;28;20072;-77
2023/06/24 03:17:55;;;;;;;0.10;0.10;;;;;;;14.15;100.00;97430.09;5019755;28;20033;-77
2023/06/24 03:20:42;;;;;;;0.10;0.10;;;;;;;14.17;100.00;97438.75;5022336;28;20044;-77
2023/06/24 03:23:33;;;;;;;0.10;0.10;;;;;;;14.15;100.00;97446.25;5004998;28;20048;-78
2023/06/24 03:26:19;;;;;;;0.10;0.10;;;;;;;14.20;100.00;97446.34;5020758;28;20045;-78
2023/06/24 03:29:07;;;;;;;0.10;0.10;;;;;;;14.22;100.00;97441.50;5035522;28;20103;-77
2023/06/24 03:31:53;;;;;;;0.10;0.10;;;;;;;14.20;100.00;97446.34;5015442;28;20052;-77
2023/06/24 03:34:42;;;;;;;0.00;0.00;;;;;;;14.09;100.00;97436.50;5021360;28;20385;-78
2023/06/24 03:37:29;;;;;;;0.10;0.10;;;;;;;14.11;100.00;97447.81;5019205;28;20060;-77
2023/06/24 03:40:15;;;;;;;0.10;0.10;;;;;;;14.11;100.00;97450.50;5028707;28;20068;-78
2023/06/24 03:43:01;;;;;;;0.10;0.10;;;;;;;14.10;100.00;97446.19;5016034;28;20800;-77
2023/06/24 03:45:47;;;;;;;0.10;0.10;;;;;;;14.09;100.00;97447.25;5034305;28;20080;-77
2023/06/24 03:48:35;;;;;;;0.08;0.08;;;;;;;14.10;100.00;97448.88;5020668;28;20044;-78
2023/06/24 03:51:21;;;;;;;0.10;0.10;;;;;;;14.13;100.00;97447.56;5032961;28;20060;-79
2023/06/24 03:54:07;;;;;;;0.08;0.08;;;;;;;13.91;100.00;97445.63;5017153;28;20037;-79
2023/06/24 03:56:53;;;;;;;0.08;0.08;;;;;;;13.84;100.00;97447.66;5018491;28;20103;-78
2023/06/24 03:59:39;;;;;;;0.10;0.10;;;;;;;13.96;100.00;97441.41;5019920;28;20095;-78
2023/06/24 04:02:26;;;;;;;0.00;0.00;;;;;;;14.00;100.00;97434.44;5007633;28;20048;-79
2023/06/24 04:05:12;;;;;;;0.10;0.10;;;;;;;14.11;100.00;97450.50;5008841;28;20066;-79
2023/06/24 04:07:58;;;;;;;0.10;0.10;;;;;;;14.20;100.00;97451.72;5033822;28;20044;-78
2023/06/24 04:10:45;;;;;;;0.10;0.10;;;;;;;14.30;100.00;97447.53;5036456;28;20041;-79
2023/06/24 04:13:32;;;;;;;0.10;0.10;;;;;;;14.42;100.00;97448.25;5021014;28;20095;-78
2023/06/24 04:16:18;;;;;;;0.10;0.10;;;;;;;14.50;100.00;97445.16;5018419;28;20503;-79
2023/06/24 04:19:04;;;;;;;0.10;0.10;;;;;;;14.55;100.00;97445.19;5020773;28;20044;-78
2023/06/24 04:21:50;;;;;;;0.10;0.10;;;;;;;14.39;100.00;97430.69;5035502;28;20037;-79
2023/06/24 04:24:36;;;;;;;0.10;0.10;;;;;;;14.39;100.00;97441.47;5020771;28;20122;-78
2023/06/24 04:27:22;;;;;;;0.10;0.10;;;;;;;14.43;100.00;97445.31;5021119;28;20457;-78
2023/06/24 04:30:08;;;;;;;0.10;0.10;;;;;;;14.53;100.00;97447.34;5021833;28;20579;-79
2023/06/24 04:32:54;;;;;;;0.10;0.10;;;;;;;14.56;100.00;97440.66;5016206;28;20052;-78
2023/06/24 04:35:40;;;;;;;0.10;0.10;;;;;;;14.73;100.00;97457.56;5020462;28;20049;-79
2023/06/24 04:38:27;;;;;;;0.10;0.10;;;;;;;14.82;100.00;97447.16;5021321;28;20064;-79
2023/06/24 04:41:13;;;;;;;0.13;0.13;;;;;;;14.91;100.00;97451.03;5017643;28;20079;-78
2023/06/24 04:43:59;;;;;;;0.10;0.10;;;;;;;14.96;100.00;97449.22;5036062;28;20799;-79
2023/06/24 04:46:45;;;;;;;0.10;0.10;;;;;;;15.10;100.00;97463.13;5036799;28;20090;-78
2023/06/24 04:49:31;;;;;;;0.15;0.15;;;;;;;15.14;100.00;97452.66;5036541;28;20464;-78
2023/06/24 04:52:17;;;;;;;0.10;0.10;;;;;;;15.18;100.00;97456.47;5033036;28;20671;-77
2023/06/24 04:55:03;;;;;;;0.10;0.10;;;;;;;15.33;100.00;97462.84;5021355;28;20820;-77
2023/06/24 04:57:49;;;;;;;0.10;0.10;;;;;;;15.50;100.00;97462.72;5012606;28;20143;-78
2023/06/24 05:00:37;;;;;;;0.10;0.10;;;;;;;15.68;100.00;97466.16;5037089;28;20041;-77
2023/06/24 05:03:23;;;;;;;0.10;0.10;;;;;;;15.74;100.00;97460.53;5032903;28;20615;-78
2023/06/24 05:06:09;;;;;;;0.10;0.10;;;;;;;15.86;100.00;97458.47;5035828;28;20068;-78
2023/06/24 05:08:55;;;;;;;0.00;0.00;;;;;;;16.01;100.00;97465.88;5034784;28;20103;-77
2023/06/24 05:11:41;;;;;;;0.10;0.10;;;;;;;16.16;100.00;97465.19;5033426;28;20030;-78
2023/06/24 05:14:27;;;;;;;0.10;0.10;;;;;;;16.34;100.00;97472.88;5020360;28;20906;-77
2023/06/24 05:17:13;;;;;;;0.08;0.08;;;;;;;16.50;100.00;97462.97;5034454;28;20041;-78
2023/06/24 05:20:03;;;;;;;0.10;0.10;;;;;;;16.78;100.00;97469.88;5035186;28;20450;-78
2023/06/24 05:22:49;;;;;;;0.10;0.10;;;;;;;17.03;100.00;97457.53;5015754;28;20044;-78
2023/06/24 05:25:35;;;;;;;0.10;0.10;;;;;;;17.17;100.00;97458.66;5036287;28;20041;-78
2023/06/24 05:28:21;;;;;;;0.10;0.10;;;;;;;17.29;100.00;97453.84;5034580;28;20631;-78
2023/06/24 05:31:07;;;;;;;0.10;0.10;;;;;;;17.23;100.00;97455.72;5016855;28;20147;-78
2023/06/24 05:33:53;;;;;;;0.10;0.10;;;;;;;17.36;100.00;97462.53;5031362;28;20064;-78
2023/06/24 05:36:39;;;;;;;0.10;0.10;;;;;;;17.36;100.00;97467.94;5017073;28;20036;-78
2023/06/24 05:39:25;;;;;;;0.10;0.10;;;;;;;17.39;100.00;97471.97;5035206;28;20040;-77
2023/06/24 05:42:11;;;;;;;0.05;0.05;;;;;;;17.44;100.00;97462.00;5004228;28;20049;-78
2023/06/24 05:44:57;;;;;;;0.03;0.03;;;;;;;17.51;100.00;97467.97;5035122;28;20200;-78
2023/06/24 05:47:43;;;;;;;0.10;0.10;;;;;;;17.59;100.00;97476.59;5034640;28;20041;-78
2023/06/24 05:50:29;;;;;;;0.10;0.10;;;;;;;17.64;100.00;97471.22;5018309;28;20970;-78
2023/06/24 05:53:15;;;;;;;0.22;0.22;;;;;;;17.73;100.00;97470.44;5034028;28;20044;-78
2023/06/24 05:56:01;;;;;;;0.03;0.03;;;;;;;17.74;100.00;97476.66;5020806;28;20415;-78
2023/06/24 05:58:48;;;;;;;0.10;0.10;;;;;;;17.80;100.00;97467.47;5034964;28;20044;-78
2023/06/24 06:01:34;;;;;;;0.10;0.10;;;;;;;17.90;100.00;97462.06;5017175;28;20102;-78
2023/06/24 06:04:20;;;;;;;0.10;0.10;;;;;;;17.98;100.00;97458.81;5037922;28;20084;-78
2023/06/24 06:07:06;;;;;;;0.10;0.10;;;;;;;18.10;100.00;97459.31;5034708;28;20072;-78
2023/06/24 06:09:52;;;;;;;0.10;0.10;;;;;;;18.08;100.00;97456.09;5022125;28;20041;-78
2023/06/24 06:12:38;;;;;;;0.00;0.00;;;;;;;18.17;100.00;97460.94;5007482;28;20033;-80
2023/06/24 06:15:24;;;;;;;0.10;0.10;;;;;;;18.18;100.00;97460.69;5011102;28;20041;-81
2023/06/24 06:18:10;;;;;;;0.10;0.10;;;;;;;18.29;100.00;97464.19;5019314;28;20127;-78
2023/06/24 06:20:56;;;;;;;0.10;0.10;;;;;;;18.44;100.00;97476.88;5020219;28;20051;-78
2023/06/24 06:23:42;;;;;;;0.10;0.10;;;;;;;18.44;100.00;97474.97;5023812;28;20071;-78
2023/06/24 06:26:28;;;;;;;0.10;0.10;;;;;;;18.53;100.00;97470.66;5037087;28;20041;-79
2023/06/24 06:29:14;;;;;;;0.10;0.10;;;;;;;18.48;100.00;97467.94;5034421;28;20040;-78
2023/06/24 06:31:59;;;;;;;0.10;0.10;;;;;;;18.58;100.00;97467.09;5005170;28;20454;-78
2023/06/24 06:34:45;;;;;;;0.05;0.05;;;;;;;18.68;100.00;97477.97;5037453;28;20099;-79
2023/06/24 06:37:31;;;;;;;0.10;0.10;;;;;;;18.69;100.00;97476.06;5034238;28;20037;-79
2023/06/24 06:40:20;;;;;;;0.00;0.00;;;;;;;18.83;100.00;97471.66;5025318;28;20079;-80
2023/06/24 06:43:06;;;;;;;0.10;0.10;;;;;;;18.93;100.00;97477.06;5018990;28;20049;-81
2023/06/24 06:45:52;;;;;;;0.10;0.10;;;;;;;18.93;100.00;97477.06;5037627;28;20565;-80
2023/06/24 06:48:38;;;;;;;0.10;0.10;;;;;;;18.89;100.00;97474.06;5038116;28;20110;-78
2023/06/24 06:51:25;;;;;;;0.10;0.10;;;;;;;18.98;100.00;97470.78;5040359;28;20044;-80
2023/06/24 06:54:11;;;;;;;0.10;0.10;;;;;;;19.04;100.00;97475.91;5035210;28;20049;-78
2023/06/24 06:57:03;;;;;;;0.13;0.13;;;;;;;19.08;100.00;97478.91;5037759;28;20182;-79
2023/06/24 06:59:52;;;;;;;0.15;0.10;;;;;;;19.15;100.00;97471.28;5037744;28;20040;-78
2023/06/24 07:02:38;;;;;;;0.10;0.10;;;;;;;19.19;100.00;97472.31;5021382;28;20060;-79
2023/06/24 07:05:24;;;;;;;0.10;0.10;;;;;;;19.40;100.00;97475.75;5041334;28;20551;-80
2023/06/24 07:08:09;;;;;;;0.10;0.10;;;;;;;19.43;100.00;97477.88;5034953;28;20179;-77
2023/06/24 07:10:56;;;;;;;0.10;0.10;;;;;;;19.38;100.00;97486.06;5039332;28;20041;-78
2023/06/24 07:13:41;;;;;;;0.00;0.00;;;;;;;19.44;100.00;97484.94;5011332;28;20118;-80
2023/06/24 07:16:27;;;;;;;0.10;0.10;;;;;;;19.51;100.00;97477.28;5020451;28;20665;-79
2023/06/24 07:19:13;;;;;;;0.10;0.10;;;;;;;19.51;100.00;97473.78;5023058;28;20120;-79
2023/06/24 07:21:59;;;;;;;0.10;0.10;;;;;;;19.73;100.00;97477.72;5019607;28;20631;-78
2023/06/24 07:24:45;;;;;;;0.10;0.10;;;;;;;19.85;100.00;97476.56;5038861;28;20802;-79
2023/06/24 07:27:31;;;;;;;0.10;0.10;;;;;;;19.94;100.00;97477.59;5036870;28;20881;-77
2023/06/24 07:30:17;;;;;;;0.10;0.10;;;;;;;19.86;100.00;97483.63;5038828;28;20037;-78
2023/06/24 07:33:05;;;;;;;0.10;0.10;;;;;;;19.84;100.00;97477.63;5034998;28;20072;-80
2023/06/24 07:35:51;;;;;;;0.10;0.10;;;;;;;19.91;100.00;97473.50;5037764;28;20501;-80
2023/06/24 07:38:37;;;;;;;0.10;0.10;;;;;;;20.01;100.00;97475.34;5038579;28;20048;-79
2023/06/24 07:41:26;;;;;;;0.10;0.10;;;;;;;20.11;100.00;97482.59;5004963;28;20746;-82
2023/06/24 07:44:12;;;;;;;0.00;0.00;;;;;;;20.19;100.00;97485.50;5032294;28;20036;-79
2023/06/24 07:46:58;;;;;;;0.10;0.10;;;;;;;20.22;100.00;97479.50;5034697;28;20101;-78
2023/06/24 07:49:44;;;;;;;0.05;0.05;;;;;;;20.27;100.00;97484.88;5021814;28;20048;-80
2023/06/24 07:52:30;;;;;;;0.10;0.10;;;;;;;20.48;100.00;97488.25;5019880;28;20194;-80
2023/06/24 07:55:16;;;;;;;0.10;0.10;;;;;;;20.60;100.00;97485.13;5022793;28;20160;-79
2023/06/24 07:58:02;;;;;;;0.10;0.10;;;;;;;20.50;100.00;97483.34;5031412;28;20443;-78
2023/06/24 08:00:48;;;;;;;0.10;0.10;;;;;;;20.46;100.00;97481.47;5039021;28;20048;-79
2023/06/24 08:03:36;;;;;;;0.10;0.10;;;;;;;20.43;100.00;97473.88;5034761;28;20400;-78
2023/06/24 08:06:22;;;;;;;0.10;0.10;;;;;;;20.65;100.00;97482.38;5020326;28;20183;-78
2023/06/24 08:09:08;;;;;;;0.10;0.10;;;;;;;20.72;100.00;97482.84;5036588;28;20036;-80
2023/06/24 08:11:54;;;;;;;0.10;0.10;;;;;;;20.78;100.00;97481.69;5019238;28;20087;-79
2023/06/24 08:14:40;;;;;;;0.10;0.10;;;;;;;20.99;100.00;97484.16;5023560;28;20068;-79
2023/06/24 08:17:26;;;;;;;0.10;0.10;;;;;;;21.04;100.00;97479.47;5036428;28;20033;-80
2023/06/24 08:20:12;;;;;;;0.10;0.10;;;;;;;21.17;100.00;97482.56;5024091;28;20040;-80
2023/06/24 08:22:58;;;;;;;0.10;0.10;;;;;;;21.23;100.00;97474.06;5035359;28;20627;-79
2023/06/24 08:25:44;;;;;;;0.00;0.00;;;;;;;21.39;100.00;97482.84;5020275;28;20052;-78
2023/06/24 08:28:30;;;;;;;0.10;0.10;;;;;;;21.51;100.00;97471.53;5003792;28;20045;-79
2023/06/24 08:31:16;;;;;;;0.10;0.10;;;;;;;21.54;100.00;97469.03;5034684;28;20648;-79
2023/06/24 08:34:02;;;;;;;0.10;0.10;;;;;;;21.68;100.00;97467.19;5037655;28;20072;-79
2023/06/24 08:36:48;;;;;;;0.10;0.10;;;;;;;21.69;100.00;97468.00;5008593;28;20076;-77
2023/06/24 08:39:35;;;;;;;0.10;0.10;;;;;;;21.65;100.00;97480.59;5037032;28;20039;-77
2023/06/24 08:42:20;;;;;;;0.10;0.10;;;;;;;21.59;100.00;97468.97;5017245;28;20049;-78
2023/06/24 08:45:07;;;;;;;0.15;0.15;;;;;;;21.74;100.00;97473.38;5037000;28;20044;-78
2023/06/24 08:47:55;;;;;;;0.10;0.10;;;;;;;21.72;100.00;97464.69;5021267;28;20037;-80
2023/06/24 08:50:46;;;;;;;0.00;0.00;;;;;;;22.04;100.00;97463.91;5011596;28;20045;-79
2023/06/24 08:53:32;;;;;;;0.17;0.17;;;;;;;22.01;100.00;97458.22;5004692;28;20156;-78
2023/06/24 08:56:18;;;;;;;0.10;0.10;;;;;;;22.45;100.00;97468.66;5022857;28;20947;-78
2023/06/24 08:59:08;;;;;;;0.10;0.10;;;;;;;22.59;97.83;97468.69;5036916;28;20770;-79
2023/06/24 09:01:54;;;;;;;0.10;0.10;;;;;;;22.59;100.00;97464.06;5005073;28;20133;-79
2023/06/24 09:04:41;;;;;;;0.10;0.10;;;;;;;22.87;99.15;97462.16;5007361;28;20048;-79
2023/06/24 09:07:30;;;;;;;0.10;0.10;;;;;;;22.82;98.03;97464.97;5020095;28;20056;-79
2023/06/24 09:10:33;;;;;;;0.10;0.10;;;;;;;23.67;93.38;97466.22;5006889;28;20044;-79
2023/06/24 09:13:19;;;;;;;0.10;0.10;;;;;;;23.74;95.55;97463.06;5002614;28;20434;-79
2023/06/24 09:16:14;;;;;;;0.10;0.10;;;;;;;23.84;95.38;97460.06;5019395;28;20503;-78
2023/06/24 09:19:00;;;;;;;0.10;0.10;;;;;;;24.10;92.96;97465.72;5034724;28;20080;-79
2023/06/24 09:21:46;;;;;;;0.10;0.10;;;;;;;24.26;92.88;97455.22;5007138;28;20203;-79
2023/06/24 09:24:37;;;;;;;0.10;0.10;;;;;;;24.49;91.19;97454.06;5024477;28;20052;-80
2023/06/24 09:27:23;;;;;;;0.00;0.00;;;;;;;24.45;92.62;97447.63;5006229;28;20075;-80
2023/06/24 09:30:19;;;;;;;0.10;0.10;;;;;;;24.52;92.60;97453.47;5010186;28;20053;-79
2023/06/24 09:33:05;;;;;;;0.10;0.10;;;;;;;24.22;94.24;97455.03;5003844;28;20052;-79
2023/06/24 09:35:52;;;;;;;0.00;0.00;;;;;;;23.94;94.98;97443.44;5007155;28;20043;-80
2023/06/24 09:38:40;;;;;;;0.00;0.00;;;;;;;23.59;96.56;97445.88;5006186;28;20044;-79
2023/06/24 09:41:28;;;;;;;0.10;0.10;;;;;;;23.40;98.51;97452.59;5007459;28;20973;-80
2023/06/24 09:44:16;;;;;;;0.10;0.10;;;;;;;23.47;97.96;97437.41;5010420;28;20124;-79
2023/06/24 09:47:02;;;;;;;0.10;0.10;;;;;;;23.81;97.25;97433.34;5010189;28;20163;-79
2023/06/24 09:49:48;;;;;;;0.00;0.00;;;;;;;23.73;99.75;97431.38;5008696;28;21259;-79
2023/06/24 09:52:35;;;;;;;0.10;0.10;;;;;;;23.76;97.81;97436.22;5020548;28;20113;-78
2023/06/24 09:55:22;;;;;;;0.10;0.10;;;;;;;24.01;95.75;97427.41;5020813;28;20707;-78
2023/06/24 09:58:08;;;;;;;0.10;0.10;;;;;;;24.51;94.69;97423.66;5006544;28;20041;-78
2023/06/24 10:00:54;;;;;;;0.10;0.10;;;;;;;24.84;92.81;97422.19;5009777;28;20053;-78
2023/06/24 10:03:41;;;;;;;0.10;0.10;;;;;;;24.41;95.27;97417.34;5025145;28;20045;-78
2023/06/24 10:06:27;;;;;;;0.10;0.10;;;;;;;24.28;92.99;97420.13;5023786;28;20467;-78
2023/06/24 10:09:16;;;;;;;0.10;0.10;;;;;;;24.72;90.31;97422.00;5021007;28;20148;-79
2023/06/24 10:12:03;;;;;;;0.10;0.10;;;;;;;25.20;89.96;97407.47;5020621;28;20044;-80
2023/06/24 10:14:49;;;;;;;0.13;0.13;;;;;;;25.54;88.34;97417.69;5007466;28;20078;-79
2023/06/24 10:17:35;;;;;;;0.10;0.10;;;;;;;25.18;88.94;97416.03;5006476;28;20605;-79
2023/06/24 10:20:25;;;;;;;0.10;0.10;;;;;;;24.99;91.58;97410.81;5019462;28;20037;-79
2023/06/24 10:23:11;;;;;;;0.10;0.10;;;;;;;25.38;90.63;97408.31;5037496;28;20111;-79
2023/06/24 10:25:57;;;;;;;0.10;0.10;;;;;;;25.74;86.74;97395.09;5022548;28;20036;-79
2023/06/24 10:29:05;;;;;;;0.10;0.10;;;;;;;26.09;83.76;97406.03;5024233;28;20045;-80
2023/06/24 10:31:52;;;;;;;0.10;0.10;;;;;;;26.41;85.57;97398.38;5021447;28;20412;-79
2023/06/24 10:34:38;;;;;;;0.10;0.10;;;;;;;26.67;83.41;97404.56;5020569;28;20704;-79
2023/06/24 10:37:25;;;;;;;0.10;0.10;;;;;;;26.70;83.01;97403.13;5021625;28;20046;-78
2023/06/24 10:40:11;;;;;;;0.10;0.10;;;;;;;26.24;81.94;97405.50;5040813;28;20048;-79
2023/06/24 10:43:00;;;;;;;0.10;0.10;;;;;;;26.80;82.21;97400.00;5009236;28;20045;-79
2023/06/24 10:45:50;;;;;;;0.10;0.10;;;;;;;27.22;78.12;97398.13;5041729;28;20811;-79
2023/06/24 10:48:36;;;;;;;0.10;0.10;;;;;;;27.25;75.46;97391.19;5039501;28;20106;-79
2023/06/24 10:51:22;;;;;;;0.10;0.10;;;;;;;27.64;77.76;97376.16;5012591;28;20051;-79
2023/06/24 10:54:08;;;;;;;0.20;0.20;;;;;;;27.85;74.15;97384.38;5012609;28;20044;-79
2023/06/24 10:56:55;;;;;;;0.00;0.00;;;;;;;28.36;74.03;97388.56;5024705;28;20514;-79
2023/06/24 10:59:42;;;;;;;0.10;0.10;;;;;;;28.15;71.33;97379.56;5037942;28;20045;-79
2023/06/24 11:02:29;;;;;;;0.10;0.10;;;;;;;27.16;79.14;97383.81;5020059;28;20045;-79
2023/06/24 11:05:14;;;;;;;0.10;0.10;;;;;;;26.98;80.22;97381.47;5038865;28;20427;-79
2023/06/24 11:08:00;;;;;;;0.00;0.00;;;;;;;27.95;75.65;97367.47;5022121;28;20051;-79
2023/06/24 11:10:47;;;;;;;0.10;0.10;;;;;;;28.40;71.58;97369.41;5038951;28;20060;-78
2023/06/24 11:13:34;;;;;;;0.10;0.10;;;;;;;28.33;70.09;97367.25;5037653;28;20037;-78
2023/06/24 11:16:23;;;;;;;0.10;0.10;;;;;;;28.06;65.36;97370.59;5019958;28;20045;-80
2023/06/24 11:19:09;;;;;;;0.10;0.10;;;;;;;29.05;73.09;97368.41;5018566;28;20091;-79
2023/06/24 11:21:59;;;;;;;0.20;0.20;;;;;;;30.01;58.93;97359.38;5014124;28;20040;-79
2023/06/24 11:24:45;;;;;;;0.10;0.10;;;;;;;30.60;56.55;97357.75;5036968;28;20583;-79
2023/06/24 11:27:31;;;;;;;0.03;0.03;;;;;;;29.45;52.50;97358.56;5032485;28;20469;-79
2023/06/24 11:30:17;;;;;;;0.10;0.10;;;;;;;29.36;52.00;97350.44;5036857;28;20408;-79
2023/06/24 11:33:03;;;;;;;0.17;0.17;;;;;;;31.49;41.64;97346.78;5037062;28;20159;-79
2023/06/24 11:35:49;;;;;;;0.17;0.17;;;;;;;33.22;36.23;97347.44;5011690;28;20110;-80
2023/06/24 11:38:36;;;;;;;0.10;0.10;;;;;;;34.68;30.18;97337.19;5020817;28;20589;-79
2023/06/24 11:41:23;;;;;;;0.10;0.10;;;;;;;33.66;34.26;97351.59;5019996;28;20414;-79
2023/06/24 11:44:09;;;;;;;0.10;0.10;;;;;;;35.52;31.08;97338.13;5019775;28;20067;-80
2023/06/24 11:47:04;;;;;;;0.10;0.10;;;;;;;38.11;25.04;97341.16;5013143;28;20110;-80
2023/06/24 11:49:55;;;;;;;0.15;0.15;;;;;;;39.46;24.16;97330.84;5023716;28;20044;-79
2023/06/24 11:52:44;;;;;;;0.10;0.10;;;;;;;40.65;22.23;97332.38;5019945;28;20218;-81
2023/06/24 11:55:31;;;;;;;0.10;0.10;;;;;;;41.71;21.00;97328.81;5009876;28;20045;-80
2023/06/24 11:58:19;;;;;;;0.20;0.20;;;;;;;42.67;19.10;97323.00;5007341;28;20166;-79
2023/06/24 12:01:09;;;;;;;0.10;0.10;;;;;;;43.21;18.04;97330.84;5010445;28;20044;-80
2023/06/24 12:03:54;;;;;;;0.20;0.20;;;;;;;39.82;21.31;97317.16;5021615;28;20048;-80
2023/06/24 12:06:41;;;;;;;0.00;0.00;;;;;;;35.41;25.63;97310.28;5037775;28;20124;-79
2023/06/24 12:09:29;;;;;;;0.00;0.00;;;;;;;30.70;36.95;97313.84;5021594;28;20519;-80
2023/06/24 12:12:14;;;;;;;0.20;0.20;;;;;;;31.79;40.60;97313.81;5038049;28;21012;-80
2023/06/24 12:15:00;;;;;;;0.20;0.20;;;;;;;38.44;25.77;97298.63;5033447;28;20110;-80
2023/06/24 12:17:46;;;;;;;0.10;0.10;;;;;;;41.40;21.29;97294.53;5021276;28;20099;-80
2023/06/24 12:20:34;;;;;;;0.10;0.10;;;;;;;42.50;20.97;97307.34;5020445;28;20045;-81
2023/06/24 12:23:21;;;;;;;0.17;0.17;;;;;;;42.56;21.30;97299.97;5036836;28;20068;-79
2023/06/24 12:26:10;;;;;;;0.10;0.10;;;;;;;43.34;20.40;97292.22;5022213;28;20049;-80
2023/06/24 12:28:57;;;;;;;0.10;0.10;;;;;;;44.36;19.16;97281.13;5018387;28;20124;-80
2023/06/24 12:31:44;;;;;;;0.10;0.10;;;;;;;45.26;17.49;97290.13;5017351;28;20057;-82
2023/06/24 12:34:29;;;;;;;0.20;0.20;;;;;;;45.65;16.59;97287.91;5022571;28;20056;-81
2023/06/24 12:37:15;;;;;;;0.10;0.10;;;;;;;46.37;16.58;97286.66;5006897;28;20503;-80
2023/06/24 12:40:04;;;;;;;0.10;0.10;;;;;;;46.60;16.56;97286.09;5010658;28;20032;-80
2023/06/24 12:42:50;;;;;;;0.10;0.10;;;;;;;47.50;16.00;97283.00;5017720;28;20156;-76
2023/06/24 12:45:38;;;;;;;0.10;0.10;;;;;;;46.29;16.02;97286.16;5037771;28;20059;-80
2023/06/24 12:48:24;;;;;;;0.10;0.10;;;;;;;47.80;15.44;97283.28;5016501;28;20041;-81
2023/06/24 12:51:12;;;;;;;0.10;0.10;;;;;;;46.38;13.66;97288.22;5015046;28;20041;-81
2023/06/24 12:53:58;;;;;;;0.10;0.10;;;;;;;43.92;17.46;97280.91;5006909;28;20036;-81
2023/06/24 12:56:44;;;;;;;0.10;0.10;;;;;;;45.87;16.75;97270.91;5017594;28;20055;-81
2023/06/24 12:59:30;;;;;;;0.10;0.10;;;;;;;47.39;15.57;97269.31;5025636;28;20124;-81
2023/06/24 13:02:16;;;;;;;0.10;0.10;;;;;;;45.90;16.70;97262.28;5018632;28;20045;-81